Weather at Yas Island Civil Defence Heliport

Public forecast

Using degrees Celsius for public forecast. Weather courtesy of forecast.io.

Closest aviation weather report (METAR) to Yas Island Civil Defence Heliport

Closest report is Abu Dhabi International Airport, 4.1 nm (7.5 km) SE.

2024/07/20 19:00 (retrieved 10 minutes ago)

OMAA 201900Z 34007KT 5000 HZ FEW017 34/30 Q0995 NOSIG

Closest aviation forecast (TAF) to Yas Island Civil Defence Heliport

Closest forecast is Abu Dhabi International Airport, 4.1 nm (7.5 km) SE.

2024/07/20 18:00 (retrieved 1 hour ago)

TAF OMAA 201700Z 2018/2200 03006KT 6000 NSC TEMPO 2018/2022 4000 HZ PROB40 2022/2104 3000 BR BECMG 2106/2108 32013KT PROB30 2112/2119 4000 HZ BECMG 2116/2118 04005KT